sensor_id;sensor_type;location;lat;lon;timestamp;pressure;altitude;pressure_sealevel;temperature;humidity
47913;BME280;33676;51.006;17.180;2022-12-15T00:00:31;98946.45;;;-3.33;91.84
47913;BME280;33676;51.006;17.180;2022-12-15T00:03:27;98946.27;;;-3.41;91.83
47913;BME280;33676;51.006;17.180;2022-12-15T00:06:14;98945.14;;;-3.47;92.19
47913;BME280;33676;51.006;17.180;2022-12-15T00:09:02;98944.94;;;-3.54;92.29
47913;BME280;33676;51.006;17.180;2022-12-15T00:11:58;98946.21;;;-3.60;92.13
47913;BME280;33676;51.006;17.180;2022-12-15T00:14:45;98948.94;;;-3.67;92.45
47913;BME280;33676;51.006;17.180;2022-12-15T00:17:33;98953.08;;;-3.77;92.18
47913;BME280;33676;51.006;17.180;2022-12-15T00:20:20;98960.78;;;-3.85;92.18
47913;BME280;33676;51.006;17.180;2022-12-15T00:23:11;98961.70;;;-3.95;92.00
47913;BME280;33676;51.006;17.180;2022-12-15T00:25:59;98961.00;;;-4.04;92.25
47913;BME280;33676;51.006;17.180;2022-12-15T00:28:47;98960.59;;;-4.11;92.59
47913;BME280;33676;51.006;17.180;2022-12-15T00:31:34;98959.89;;;-4.18;92.77
47913;BME280;33676;51.006;17.180;2022-12-15T00:34:21;98965.98;;;-4.25;92.94
47913;BME280;33676;51.006;17.180;2022-12-15T00:37:08;98970.52;;;-4.32;92.95
47913;BME280;33676;51.006;17.180;2022-12-15T00:39:56;98976.21;;;-4.39;92.96
47913;BME280;33676;51.006;17.180;2022-12-15T00:42:27;98984.27;;;-4.44;92.97
47913;BME280;33676;51.006;17.180;2022-12-15T00:44:56;98989.48;;;-4.47;93.46
47913;BME280;33676;51.006;17.180;2022-12-15T00:47:25;98985.81;;;-4.49;93.68
47913;BME280;33676;51.006;17.180;2022-12-15T00:49:53;98985.48;;;-4.49;94.18
47913;BME280;33676;51.006;17.180;2022-12-15T00:52:51;98990.26;;;-4.49;94.16
47913;BME280;33676;51.006;17.180;2022-12-15T00:55:38;98991.67;;;-4.51;94.44
47913;BME280;33676;51.006;17.180;2022-12-15T00:58:25;99000.19;;;-4.50;94.40
47913;BME280;33676;51.006;17.180;2022-12-15T01:01:13;99000.15;;;-4.50;94.61
47913;BME280;33676;51.006;17.180;2022-12-15T01:04:00;98996.86;;;-4.48;94.79
47913;BME280;33676;51.006;17.180;2022-12-15T01:06:47;98995.46;;;-4.47;95.11
47913;BME280;33676;51.006;17.180;2022-12-15T01:09:35;98997.40;;;-4.45;95.23
47913;BME280;33676;51.006;17.180;2022-12-15T01:12:22;99001.75;;;-4.42;95.21
47913;BME280;33676;51.006;17.180;2022-12-15T01:15:09;99006.60;;;-4.40;95.26
47913;BME280;33676;51.006;17.180;2022-12-15T01:17:56;99008.05;;;-4.38;95.37
47913;BME280;33676;51.006;17.180;2022-12-15T01:20:44;99014.77;;;-4.35;95.44
47913;BME280;33676;51.006;17.180;2022-12-15T01:23:12;99013.11;;;-4.31;95.58
47913;BME280;33676;51.006;17.180;2022-12-15T01:25:41;99017.79;;;-4.28;95.54
47913;BME280;33676;51.006;17.180;2022-12-15T01:28:09;99014.96;;;-4.26;95.53
47913;BME280;33676;51.006;17.180;2022-12-15T01:30:38;99014.38;;;-4.24;95.72
47913;BME280;33676;51.006;17.180;2022-12-15T01:33:07;99019.90;;;-4.21;95.64
47913;BME280;33676;51.006;17.180;2022-12-15T01:35:35;99023.56;;;-4.19;95.73
47913;BME280;33676;51.006;17.180;2022-12-15T01:38:04;99022.44;;;-4.16;95.69
47913;BME280;33676;51.006;17.180;2022-12-15T01:40:33;99027.08;;;-4.13;95.80
47913;BME280;33676;51.006;17.180;2022-12-15T01:43:26;99032.86;;;-4.09;95.65
47913;BME280;33676;51.006;17.180;2022-12-15T01:48:51;99034.44;;;-4.01;96.07
47913;BME280;33676;51.006;17.180;2022-12-15T01:51:33;99034.09;;;-3.96;96.32
47913;BME280;33676;51.006;17.180;2022-12-15T01:54:10;99039.73;;;-3.92;96.41
47913;BME280;33676;51.006;17.180;2022-12-15T01:56:50;99048.98;;;-3.88;96.52
47913;BME280;33676;51.006;17.180;2022-12-15T01:59:26;99046.80;;;-3.85;96.44
47913;BME280;33676;51.006;17.180;2022-12-15T02:01:56;99049.56;;;-3.81;96.32
47913;BME280;33676;51.006;17.180;2022-12-15T02:04:25;99058.34;;;-3.79;96.39
47913;BME280;33676;51.006;17.180;2022-12-15T02:06:53;99060.33;;;-3.77;96.45
47913;BME280;33676;51.006;17.180;2022-12-15T02:09:23;99062.32;;;-3.76;96.30
47913;BME280;33676;51.006;17.180;2022-12-15T02:32:39;99083.30;;;-3.67;96.41
47913;BME280;33676;51.006;17.180;2022-12-15T02:35:46;99086.60;;;-3.64;96.41
47913;BME280;33676;51.006;17.180;2022-12-15T02:38:36;99091.23;;;-3.60;96.51
47913;BME280;33676;51.006;17.180;2022-12-15T02:44:06;99108.77;;;-3.55;96.48
47913;BME280;33676;51.006;17.180;2022-12-15T02:46:50;99112.61;;;-3.53;96.51
47913;BME280;33676;51.006;17.180;2022-12-15T02:58:40;99133.15;;;-3.41;96.42
47913;BME280;33676;51.006;17.180;2022-12-15T03:01:39;99134.73;;;-3.38;96.51
47913;BME280;33676;51.006;17.180;2022-12-15T03:04:11;99139.21;;;-3.34;96.43
47913;BME280;33676;51.006;17.180;2022-12-15T03:06:40;99143.53;;;-3.31;96.30
47913;BME280;33676;51.006;17.180;2022-12-15T03:09:09;99142.59;;;-3.29;96.33
47913;BME280;33676;51.006;17.180;2022-12-15T03:11:38;99140.39;;;-3.25;96.36
47913;BME280;33676;51.006;17.180;2022-12-15T03:14:06;99144.18;;;-3.22;96.27
47913;BME280;33676;51.006;17.180;2022-12-15T03:16:35;99146.56;;;-3.17;96.39
47913;BME280;33676;51.006;17.180;2022-12-15T03:19:04;99150.70;;;-3.14;96.25
47913;BME280;33676;51.006;17.180;2022-12-15T03:21:32;99151.38;;;-3.10;96.11
47913;BME280;33676;51.006;17.180;2022-12-15T03:24:01;99147.86;;;-3.08;95.93
47913;BME280;33676;51.006;17.180;2022-12-15T03:26:29;99146.39;;;-3.05;96.05
47913;BME280;33676;51.006;17.180;2022-12-15T03:28:58;99150.94;;;-3.04;95.87
47913;BME280;33676;51.006;17.180;2022-12-15T03:31:26;99154.94;;;-3.01;95.94
47913;BME280;33676;51.006;17.180;2022-12-15T03:33:55;99161.15;;;-2.98;95.93
47913;BME280;33676;51.006;17.180;2022-12-15T03:36:24;99158.38;;;-2.97;95.59
47913;BME280;33676;51.006;17.180;2022-12-15T03:38:53;99160.33;;;-2.95;95.65
47913;BME280;33676;51.006;17.180;2022-12-15T03:41:21;99163.27;;;-2.91;95.57
47913;BME280;33676;51.006;17.180;2022-12-15T03:43:50;99166.14;;;-2.90;95.54
47913;BME280;33676;51.006;17.180;2022-12-15T03:46:19;99167.14;;;-2.90;95.21
47913;BME280;33676;51.006;17.180;2022-12-15T03:48:47;99165.48;;;-2.91;95.08
47913;BME280;33676;51.006;17.180;2022-12-15T03:51:16;99167.57;;;-2.92;94.88
47913;BME280;33676;51.006;17.180;2022-12-15T03:53:45;99166.77;;;-2.93;94.68
47913;BME280;33676;51.006;17.180;2022-12-15T03:56:16;99172.94;;;-2.94;94.73
47913;BME280;33676;51.006;17.180;2022-12-15T03:58:45;99174.91;;;-2.91;94.84
47913;BME280;33676;51.006;17.180;2022-12-15T04:01:34;99179.96;;;-2.90;94.86
47913;BME280;33676;51.006;17.180;2022-12-15T04:04:04;99175.96;;;-2.88;94.81
47913;BME280;33676;51.006;17.180;2022-12-15T04:06:32;99179.83;;;-2.86;94.98
47913;BME280;33676;51.006;17.180;2022-12-15T04:09:01;99180.79;;;-2.85;95.12
47913;BME280;33676;51.006;17.180;2022-12-15T04:11:30;99182.77;;;-2.83;94.85
47913;BME280;33676;51.006;17.180;2022-12-15T04:13:58;99184.80;;;-2.83;94.75
47913;BME280;33676;51.006;17.180;2022-12-15T04:16:27;99191.06;;;-2.81;94.86
47913;BME280;33676;51.006;17.180;2022-12-15T04:18:55;99198.52;;;-2.79;94.87
47913;BME280;33676;51.006;17.180;2022-12-15T04:21:43;99200.36;;;-2.79;94.86
47913;BME280;33676;51.006;17.180;2022-12-15T04:24:11;99201.89;;;-2.78;94.97
47913;BME280;33676;51.006;17.180;2022-12-15T04:26:58;99210.73;;;-2.77;94.79
47913;BME280;33676;51.006;17.180;2022-12-15T04:29:46;99211.75;;;-2.77;94.91
47913;BME280;33676;51.006;17.180;2022-12-15T04:32:33;99213.41;;;-2.76;94.95
47913;BME280;33676;51.006;17.180;2022-12-15T04:35:20;99216.62;;;-2.75;95.01
47913;BME280;33676;51.006;17.180;2022-12-15T04:38:07;99217.91;;;-2.73;95.06
47913;BME280;33676;51.006;17.180;2022-12-15T04:40:54;99219.73;;;-2.71;95.19
47913;BME280;33676;51.006;17.180;2022-12-15T04:43:42;99227.88;;;-2.70;95.34
47913;BME280;33676;51.006;17.180;2022-12-15T04:46:29;99227.78;;;-2.67;95.29
47913;BME280;33676;51.006;17.180;2022-12-15T04:49:16;99227.63;;;-2.63;95.44
47913;BME280;33676;51.006;17.180;2022-12-15T04:52:03;99232.50;;;-2.61;95.44
47913;BME280;33676;51.006;17.180;2022-12-15T04:54:51;99238.34;;;-2.58;95.55
47913;BME280;33676;51.006;17.180;2022-12-15T04:57:38;99241.77;;;-2.54;95.56
47913;BME280;33676;51.006;17.180;2022-12-15T05:00:25;99239.06;;;-2.51;95.64
47913;BME280;33676;51.006;17.180;2022-12-15T05:03:12;99246.23;;;-2.46;95.73
47913;BME280;33676;51.006;17.180;2022-12-15T05:06:00;99253.29;;;-2.43;95.67
47913;BME280;33676;51.006;17.180;2022-12-15T05:08:48;99252.66;;;-2.41;95.64
47913;BME280;33676;51.006;17.180;2022-12-15T05:11:36;99262.42;;;-2.37;95.75
47913;BME280;33676;51.006;17.180;2022-12-15T05:14:23;99265.05;;;-2.34;95.64
47913;BME280;33676;51.006;17.180;2022-12-15T05:17:10;99259.31;;;-2.31;95.79
47913;BME280;33676;51.006;17.180;2022-12-15T05:19:57;99266.06;;;-2.29;95.67
47913;BME280;33676;51.006;17.180;2022-12-15T05:22:44;99273.42;;;-2.26;95.89
47913;BME280;33676;51.006;17.180;2022-12-15T05:25:32;99280.45;;;-2.22;95.89
47913;BME280;33676;51.006;17.180;2022-12-15T05:28:19;99281.50;;;-2.18;95.92
47913;BME280;33676;51.006;17.180;2022-12-15T05:31:07;99282.35;;;-2.14;95.99
47913;BME280;33676;51.006;17.180;2022-12-15T05:33:55;99280.66;;;-2.10;95.93
47913;BME280;33676;51.006;17.180;2022-12-15T05:36:32;99280.55;;;-2.08;95.96
47913;BME280;33676;51.006;17.180;2022-12-15T05:39:01;99280.77;;;-2.06;95.90
47913;BME280;33676;51.006;17.180;2022-12-15T05:41:29;99284.76;;;-2.03;95.81
47913;BME280;33676;51.006;17.180;2022-12-15T05:43:58;99293.27;;;-2.02;95.63
47913;BME280;33676;51.006;17.180;2022-12-15T05:46:27;99305.98;;;-1.98;95.67
47913;BME280;33676;51.006;17.180;2022-12-15T05:48:55;99315.80;;;-1.95;95.64
47913;BME280;33676;51.006;17.180;2022-12-15T05:51:24;99318.21;;;-1.92;95.63
47913;BME280;33676;51.006;17.180;2022-12-15T05:53:53;99316.58;;;-1.89;95.48
47913;BME280;33676;51.006;17.180;2022-12-15T05:56:21;99321.08;;;-1.87;95.43
47913;BME280;33676;51.006;17.180;2022-12-15T05:58:50;99321.80;;;-1.84;95.46
47913;BME280;33676;51.006;17.180;2022-12-15T06:01:18;99325.42;;;-1.80;95.53
47913;BME280;33676;51.006;17.180;2022-12-15T06:03:47;99328.35;;;-1.77;95.27
47913;BME280;33676;51.006;17.180;2022-12-15T06:06:17;99328.27;;;-1.75;95.11
47913;BME280;33676;51.006;17.180;2022-12-15T06:08:46;99329.02;;;-1.72;95.11
47913;BME280;33676;51.006;17.180;2022-12-15T06:11:18;99332.02;;;-1.70;94.94
47913;BME280;33676;51.006;17.180;2022-12-15T06:13:48;99345.95;;;-1.68;94.80
47913;BME280;33676;51.006;17.180;2022-12-15T06:16:21;99355.11;;;-1.65;94.54
47913;BME280;33676;51.006;17.180;2022-12-15T06:19:00;99360.52;;;-1.63;94.32
47913;BME280;33676;51.006;17.180;2022-12-15T06:21:34;99372.45;;;-1.62;94.14
47913;BME280;33676;51.006;17.180;2022-12-15T06:24:04;99378.98;;;-1.63;93.98
47913;BME280;33676;51.006;17.180;2022-12-15T06:26:38;99387.70;;;-1.62;94.04
47913;BME280;33676;51.006;17.180;2022-12-15T06:29:09;99394.16;;;-1.61;93.88
47913;BME280;33676;51.006;17.180;2022-12-15T06:31:39;99396.32;;;-1.59;93.93
47913;BME280;33676;51.006;17.180;2022-12-15T06:34:13;99402.59;;;-1.58;94.00
47913;BME280;33676;51.006;17.180;2022-12-15T06:36:42;99402.88;;;-1.57;93.92
47913;BME280;33676;51.006;17.180;2022-12-15T06:39:13;99402.77;;;-1.55;93.83
47913;BME280;33676;51.006;17.180;2022-12-15T06:41:42;99404.06;;;-1.53;93.71
47913;BME280;33676;51.006;17.180;2022-12-15T06:44:15;99401.94;;;-1.51;93.74
47913;BME280;33676;51.006;17.180;2022-12-15T06:46:43;99402.66;;;-1.48;93.77
47913;BME280;33676;51.006;17.180;2022-12-15T06:49:13;99408.81;;;-1.44;93.86
47913;BME280;33676;51.006;17.180;2022-12-15T06:51:42;99415.16;;;-1.40;93.73
47913;BME280;33676;51.006;17.180;2022-12-15T06:54:15;99422.16;;;-1.35;93.84
47913;BME280;33676;51.006;17.180;2022-12-15T06:56:47;99425.20;;;-1.30;93.98
47913;BME280;33676;51.006;17.180;2022-12-15T06:59:19;99424.90;;;-1.27;93.67
47913;BME280;33676;51.006;17.180;2022-12-15T07:01:47;99425.59;;;-1.27;93.19
47913;BME280;33676;51.006;17.180;2022-12-15T07:04:16;99430.56;;;-1.27;93.07
47913;BME280;33676;51.006;17.180;2022-12-15T07:06:45;99425.45;;;-1.27;92.93
47913;BME280;33676;51.006;17.180;2022-12-15T07:09:14;99428.61;;;-1.29;92.80
47913;BME280;33676;51.006;17.180;2022-12-15T07:11:44;99426.95;;;-1.30;92.72
47913;BME280;33676;51.006;17.180;2022-12-15T07:14:13;99437.77;;;-1.31;92.63
47913;BME280;33676;51.006;17.180;2022-12-15T07:16:43;99440.39;;;-1.32;92.72
47913;BME280;33676;51.006;17.180;2022-12-15T07:19:13;99438.36;;;-1.33;92.68
47913;BME280;33676;51.006;17.180;2022-12-15T07:21:41;99439.36;;;-1.32;92.79
47913;BME280;33676;51.006;17.180;2022-12-15T07:24:11;99451.18;;;-1.32;92.57
47913;BME280;33676;51.006;17.180;2022-12-15T07:26:40;99455.75;;;-1.30;92.69
47913;BME280;33676;51.006;17.180;2022-12-15T07:29:09;99461.22;;;-1.30;92.47
47913;BME280;33676;51.006;17.180;2022-12-15T07:31:39;99468.66;;;-1.28;92.38
47913;BME280;33676;51.006;17.180;2022-12-15T07:34:07;99477.96;;;-1.25;92.53
47913;BME280;33676;51.006;17.180;2022-12-15T07:36:37;99485.86;;;-1.21;92.41
47913;BME280;33676;51.006;17.180;2022-12-15T07:39:05;99491.64;;;-1.16;92.36
47913;BME280;33676;51.006;17.180;2022-12-15T07:41:37;99489.55;;;-1.11;92.29
47913;BME280;33676;51.006;17.180;2022-12-15T07:44:07;99488.56;;;-1.08;92.03
47913;BME280;33676;51.006;17.180;2022-12-15T07:46:37;99493.04;;;-1.05;91.99
47913;BME280;33676;51.006;17.180;2022-12-15T07:49:06;99497.52;;;-1.02;91.82
47913;BME280;33676;51.006;17.180;2022-12-15T07:51:36;99499.23;;;-0.97;91.76
47913;BME280;33676;51.006;17.180;2022-12-15T07:54:04;99502.09;;;-0.92;91.49
47913;BME280;33676;51.006;17.180;2022-12-15T07:56:33;99503.95;;;-0.88;91.48
47913;BME280;33676;51.006;17.180;2022-12-15T07:59:06;99506.30;;;-0.83;91.60
47913;BME280;33676;51.006;17.180;2022-12-15T08:01:35;99517.77;;;-0.78;91.42
47913;BME280;33676;51.006;17.180;2022-12-15T08:04:04;99520.30;;;-0.74;91.49
47913;BME280;33676;51.006;17.180;2022-12-15T08:06:33;99525.55;;;-0.68;91.50
47913;BME280;33676;51.006;17.180;2022-12-15T08:09:02;99534.20;;;-0.61;91.63
47913;BME280;33676;51.006;17.180;2022-12-15T08:11:31;99536.11;;;-0.54;91.72
47913;BME280;33676;51.006;17.180;2022-12-15T08:14:02;99534.09;;;-0.48;91.53
47913;BME280;33676;51.006;17.180;2022-12-15T08:16:35;99533.48;;;-0.38;91.41
47913;BME280;33676;51.006;17.180;2022-12-15T08:19:05;99534.12;;;-0.30;91.24
47913;BME280;33676;51.006;17.180;2022-12-15T08:21:34;99532.78;;;-0.16;91.25
47913;BME280;33676;51.006;17.180;2022-12-15T08:24:03;99525.41;;;-0.01;91.05
47913;BME280;33676;51.006;17.180;2022-12-15T08:26:32;99521.19;;;0.12;90.91
47913;BME280;33676;51.006;17.180;2022-12-15T08:29:03;99528.90;;;0.23;90.89
47913;BME280;33676;51.006;17.180;2022-12-15T08:31:53;99534.52;;;0.31;90.72
47913;BME280;33676;51.006;17.180;2022-12-15T08:34:21;99537.89;;;0.37;90.33
47913;BME280;33676;51.006;17.180;2022-12-15T08:36:50;99545.73;;;0.38;90.38
47913;BME280;33676;51.006;17.180;2022-12-15T08:39:19;99547.38;;;0.43;90.22
47913;BME280;33676;51.006;17.180;2022-12-15T08:41:48;99546.88;;;0.50;90.13
47913;BME280;33676;51.006;17.180;2022-12-15T08:44:16;99550.84;;;0.56;90.13
47913;BME280;33676;51.006;17.180;2022-12-15T08:46:45;99549.44;;;0.60;89.99
47913;BME280;33676;51.006;17.180;2022-12-15T08:49:14;99549.04;;;0.65;89.91
47913;BME280;33676;51.006;17.180;2022-12-15T08:51:49;99548.30;;;0.66;89.25
47913;BME280;33676;51.006;17.180;2022-12-15T08:54:19;99552.53;;;0.67;89.06
47913;BME280;33676;51.006;17.180;2022-12-15T08:56:48;99558.60;;;0.70;88.74
47913;BME280;33676;51.006;17.180;2022-12-15T08:59:17;99563.86;;;0.75;88.89
47913;BME280;33676;51.006;17.180;2022-12-15T09:01:46;99565.18;;;0.83;88.86
47913;BME280;33676;51.006;17.180;2022-12-15T09:04:16;99567.45;;;0.92;88.78
47913;BME280;33676;51.006;17.180;2022-12-15T09:06:45;99566.73;;;1.03;88.80
47913;BME280;33676;51.006;17.180;2022-12-15T09:09:18;99566.98;;;1.15;88.87
47913;BME280;33676;51.006;17.180;2022-12-15T09:11:48;99570.83;;;1.24;88.44
47913;BME280;33676;51.006;17.180;2022-12-15T09:14:17;99570.17;;;1.37;88.73
47913;BME280;33676;51.006;17.180;2022-12-15T09:16:54;99569.63;;;1.47;88.09
47913;BME280;33676;51.006;17.180;2022-12-15T09:19:23;99570.14;;;1.60;87.80
47913;BME280;33676;51.006;17.180;2022-12-15T09:21:52;99567.19;;;1.70;87.64
47913;BME280;33676;51.006;17.180;2022-12-15T09:24:21;99572.67;;;1.77;86.97
47913;BME280;33676;51.006;17.180;2022-12-15T09:27:02;99580.48;;;2.05;86.95
47913;BME280;33676;51.006;17.180;2022-12-15T09:29:31;99588.14;;;2.32;86.19
47913;BME280;33676;51.006;17.180;2022-12-15T09:32:00;99584.81;;;2.52;85.71
47913;BME280;33676;51.006;17.180;2022-12-15T09:34:29;99585.50;;;2.67;85.34
47913;BME280;33676;51.006;17.180;2022-12-15T09:36:58;99591.30;;;2.53;84.34
47913;BME280;33676;51.006;17.180;2022-12-15T09:39:26;99596.20;;;2.42;84.19
47913;BME280;33676;51.006;17.180;2022-12-15T09:41:59;99595.52;;;2.45;84.26
47913;BME280;33676;51.006;17.180;2022-12-15T09:44:30;99591.98;;;2.47;84.11
47913;BME280;33676;51.006;17.180;2022-12-15T09:47:17;99592.41;;;2.42;83.87
47913;BME280;33676;51.006;17.180;2022-12-15T09:49:57;99598.81;;;2.26;83.54
47913;BME280;33676;51.006;17.180;2022-12-15T09:52:47;99601.86;;;2.11;83.55
47913;BME280;33676;51.006;17.180;2022-12-15T09:55:25;99605.59;;;2.09;83.51
47913;BME280;33676;51.006;17.180;2022-12-15T09:58:03;99605.21;;;2.10;83.25
47913;BME280;33676;51.006;17.180;2022-12-15T10:00:55;99603.62;;;1.98;82.96
47913;BME280;33676;51.006;17.180;2022-12-15T10:06:28;99588.42;;;2.14;82.93
47913;BME280;33676;51.006;17.180;2022-12-15T10:09:29;99590.39;;;2.32;83.01
47913;BME280;33676;51.006;17.180;2022-12-15T10:12:18;99587.08;;;2.51;82.98
47913;BME280;33676;51.006;17.180;2022-12-15T10:17:47;99594.23;;;2.80;82.13
47913;BME280;33676;51.006;17.180;2022-12-15T10:20:22;99598.29;;;2.90;82.23
47913;BME280;33676;51.006;17.180;2022-12-15T10:22:56;99596.25;;;3.05;82.54
47913;BME280;33676;51.006;17.180;2022-12-15T10:25:30;99601.89;;;3.23;82.48
47913;BME280;33676;51.006;17.180;2022-12-15T10:31:58;99607.84;;;3.68;82.03
47913;BME280;33676;51.006;17.180;2022-12-15T10:34:31;99615.52;;;3.87;81.67
47913;BME280;33676;51.006;17.180;2022-12-15T10:37:00;99616.19;;;4.04;81.62
47913;BME280;33676;51.006;17.180;2022-12-15T10:39:42;99611.02;;;4.20;81.13
47913;BME280;33676;51.006;17.180;2022-12-15T10:42:25;99611.68;;;4.40;81.08
47913;BME280;33676;51.006;17.180;2022-12-15T10:44:57;99610.02;;;4.63;80.94
47913;BME280;33676;51.006;17.180;2022-12-15T10:47:29;99610.48;;;4.88;80.78
47913;BME280;33676;51.006;17.180;2022-12-15T10:50:22;99612.52;;;5.09;80.57
47913;BME280;33676;51.006;17.180;2022-12-15T10:52:52;99607.21;;;5.16;80.28
47913;BME280;33676;51.006;17.180;2022-12-15T10:55:40;99604.25;;;5.34;80.22
47913;BME280;33676;51.006;17.180;2022-12-15T10:58:22;99605.66;;;5.47;79.62
47913;BME280;33676;51.006;17.180;2022-12-15T11:01:19;99613.05;;;5.29;78.86
47913;BME280;33676;51.006;17.180;2022-12-15T11:03:49;99617.58;;;5.07;78.38
47913;BME280;33676;51.006;17.180;2022-12-15T11:06:25;99620.29;;;4.94;78.61
47913;BME280;33676;51.006;17.180;2022-12-15T11:09:27;99623.63;;;4.88;78.55
47913;BME280;33676;51.006;17.180;2022-12-15T11:11:57;99621.89;;;4.88;78.70
47913;BME280;33676;51.006;17.180;2022-12-15T11:14:49;99622.48;;;4.98;78.66
47913;BME280;33676;51.006;17.180;2022-12-15T11:17:22;99627.00;;;5.03;78.52
47913;BME280;33676;51.006;17.180;2022-12-15T11:20:06;99629.68;;;5.04;78.14
47913;BME280;33676;51.006;17.180;2022-12-15T11:22:52;99637.89;;;5.06;78.00
47913;BME280;33676;51.006;17.180;2022-12-15T11:25:35;99642.02;;;5.04;77.61
47913;BME280;33676;51.006;17.180;2022-12-15T11:28:14;99640.46;;;4.98;77.47
47913;BME280;33676;51.006;17.180;2022-12-15T11:30:56;99646.09;;;4.89;76.96
47913;BME280;33676;51.006;17.180;2022-12-15T11:33:27;99644.86;;;4.76;76.73
47913;BME280;33676;51.006;17.180;2022-12-15T11:39:01;99650.54;;;4.55;76.53
47913;BME280;33676;51.006;17.180;2022-12-15T11:44:29;99652.30;;;4.40;77.21
47913;BME280;33676;51.006;17.180;2022-12-15T11:47:42;99658.52;;;4.32;76.96
47913;BME280;33676;51.006;17.180;2022-12-15T11:56:51;99664.73;;;3.73;76.33
47913;BME280;33676;51.006;17.180;2022-12-15T12:05:40;99669.41;;;3.26;76.84
47913;BME280;33676;51.006;17.180;2022-12-15T12:11:15;99673.52;;;2.97;76.96
47913;BME280;33676;51.006;17.180;2022-12-15T12:14:05;99677.52;;;2.90;76.98
47913;BME280;33676;51.006;17.180;2022-12-15T12:19:31;99672.30;;;2.76;77.16
47913;BME280;33676;51.006;17.180;2022-12-15T12:22:10;99667.61;;;2.70;77.25
47913;BME280;33676;51.006;17.180;2022-12-15T12:25:18;99669.45;;;2.64;77.26
47913;BME280;33676;51.006;17.180;2022-12-15T12:30:41;99670.33;;;2.52;77.36
47913;BME280;33676;51.006;17.180;2022-12-15T12:33:39;99665.41;;;2.48;77.61
47913;BME280;33676;51.006;17.180;2022-12-15T12:36:14;99652.50;;;2.41;77.55
47913;BME280;33676;51.006;17.180;2022-12-15T12:38:50;99653.81;;;2.36;77.51
47913;BME280;33676;51.006;17.180;2022-12-15T12:41:44;99653.16;;;2.32;77.67
47913;BME280;33676;51.006;17.180;2022-12-15T12:44:30;99656.01;;;2.30;77.82
47913;BME280;33676;51.006;17.180;2022-12-15T12:47:29;99654.15;;;2.26;77.88
47913;BME280;33676;51.006;17.180;2022-12-15T12:50:15;99652.96;;;2.22;77.70
47913;BME280;33676;51.006;17.180;2022-12-15T12:53:20;99646.84;;;2.21;78.06
47913;BME280;33676;51.006;17.180;2022-12-15T12:55:51;99643.97;;;2.20;77.75
47913;BME280;33676;51.006;17.180;2022-12-15T12:58:45;99641.29;;;2.25;78.21
47913;BME280;33676;51.006;17.180;2022-12-15T13:01:32;99642.32;;;2.31;78.34
47913;BME280;33676;51.006;17.180;2022-12-15T13:04:06;99636.42;;;2.38;78.27
47913;BME280;33676;51.006;17.180;2022-12-15T13:14:41;99656.20;;;2.61;78.28
47913;BME280;33676;51.006;17.180;2022-12-15T13:17:30;99649.66;;;2.64;78.05
47913;BME280;33676;51.006;17.180;2022-12-15T13:22:34;99654.42;;;2.68;78.17
47913;BME280;33676;51.006;17.180;2022-12-15T13:33:52;99663.63;;;2.67;77.75
47913;BME280;33676;51.006;17.180;2022-12-15T13:44:47;99673.87;;;2.48;77.58
47913;BME280;33676;51.006;17.180;2022-12-15T13:47:25;99676.46;;;2.38;77.72
47913;BME280;33676;51.006;17.180;2022-12-15T13:50:14;99677.52;;;2.28;77.27
47913;BME280;33676;51.006;17.180;2022-12-15T13:52:52;99677.16;;;2.15;77.26
47913;BME280;33676;51.006;17.180;2022-12-15T13:56:02;99690.35;;;1.97;77.02
47913;BME280;33676;51.006;17.180;2022-12-15T13:58:43;99700.17;;;1.78;76.78
47913;BME280;33676;51.006;17.180;2022-12-15T14:01:31;99705.20;;;1.56;76.87
47913;BME280;33676;51.006;17.180;2022-12-15T14:04:05;99704.02;;;1.39;77.05
47913;BME280;33676;51.006;17.180;2022-12-15T14:06:39;99703.54;;;1.24;76.93
47913;BME280;33676;51.006;17.180;2022-12-15T14:09:13;99709.16;;;1.08;76.85
47913;BME280;33676;51.006;17.180;2022-12-15T14:11:43;99719.92;;;0.88;76.76
47913;BME280;33676;51.006;17.180;2022-12-15T14:14:34;99722.48;;;0.67;76.61
47913;BME280;33676;51.006;17.180;2022-12-15T14:17:12;99722.09;;;0.42;76.47
47913;BME280;33676;51.006;17.180;2022-12-15T14:19:45;99728.91;;;0.16;76.25
47913;BME280;33676;51.006;17.180;2022-12-15T14:22:24;99736.92;;;-0.06;76.43
47913;BME280;33676;51.006;17.180;2022-12-15T14:25:19;99734.63;;;-0.28;76.47
47913;BME280;33676;51.006;17.180;2022-12-15T14:27:49;99739.87;;;-0.51;76.65
47913;BME280;33676;51.006;17.180;2022-12-15T14:30:28;99750.35;;;-0.68;76.81
47913;BME280;33676;51.006;17.180;2022-12-15T14:33:18;99750.14;;;-0.83;77.05
47913;BME280;33676;51.006;17.180;2022-12-15T14:35:49;99748.70;;;-0.99;77.23
47913;BME280;33676;51.006;17.180;2022-12-15T14:38:30;99746.52;;;-1.13;77.35
47913;BME280;33676;51.006;17.180;2022-12-15T14:41:02;99744.39;;;-1.29;77.22
47913;BME280;33676;51.006;17.180;2022-12-15T14:43:36;99749.83;;;-1.46;77.30
47913;BME280;33676;51.006;17.180;2022-12-15T14:46:16;99754.96;;;-1.64;77.38
47913;BME280;33676;51.006;17.180;2022-12-15T14:48:59;99753.80;;;-1.79;77.63
47913;BME280;33676;51.006;17.180;2022-12-15T14:51:41;99754.98;;;-1.93;78.00
47913;BME280;33676;51.006;17.180;2022-12-15T14:54:33;99761.11;;;-2.07;78.38
47913;BME280;33676;51.006;17.180;2022-12-15T14:57:12;99766.16;;;-2.19;78.65
47913;BME280;33676;51.006;17.180;2022-12-15T14:59:44;99772.83;;;-2.29;78.73
47913;BME280;33676;51.006;17.180;2022-12-15T15:02:25;99773.54;;;-2.40;78.63
47913;BME280;33676;51.006;17.180;2022-12-15T15:05:05;99779.06;;;-2.56;78.30
47913;BME280;33676;51.006;17.180;2022-12-15T15:07:54;99779.64;;;-2.74;78.06
47913;BME280;33676;51.006;17.180;2022-12-15T15:10:28;99777.80;;;-2.92;77.95
47913;BME280;33676;51.006;17.180;2022-12-15T15:12:57;99783.23;;;-3.07;78.11
47913;BME280;33676;51.006;17.180;2022-12-15T15:15:26;99794.39;;;-3.25;78.10
47913;BME280;33676;51.006;17.180;2022-12-15T15:17:58;99794.18;;;-3.42;77.97
47913;BME280;33676;51.006;17.180;2022-12-15T15:20:30;99791.24;;;-3.59;77.81
47913;BME280;33676;51.006;17.180;2022-12-15T15:28:26;99790.76;;;-4.09;77.81